Time;durP1;ratioP1;P1;durP2;ratioP2;P2;SDS_P1;SDS_P2;PMS_P1;PMS_P2;Temp;Humidity;BMP_temperature;BMP_pressure;BME280_temperature;BME280_humidity;BME280_pressure;Samples;Min_cycle;Max_cycle;Signal;HPM_P1;HPM_P2
2022/08/27 00:01:02;;;;;;;;;;;27.80;60.60;;;;;;5106595;28;20071;-61
2022/08/27 00:03:27;;;;;;;;;;;27.80;60.60;;;;;;5097106;28;19915;-61
2022/08/27 00:05:53;;;;;;;;;;;27.80;61.10;;;;;;5096909;28;19907;-61
2022/08/27 00:08:18;;;;;;;;;;;27.80;60.50;;;;;;5095956;28;19948;-61
2022/08/27 00:10:44;;;;;;;;;;;27.70;60.70;;;;;;5109220;28;19927;-61
2022/08/27 00:13:09;;;;;;;;;;;27.70;60.80;;;;;;5100694;28;19919;-61
2022/08/27 00:15:35;;;;;;;;;;;27.70;60.60;;;;;;5112425;28;19932;-61
2022/08/27 00:18:00;;;;;;;;;;;27.80;60.60;;;;;;5093488;28;19920;-61
2022/08/27 00:20:27;;;;;;;;;;;27.80;60.50;;;;;;5111896;28;20078;-61
2022/08/27 00:22:52;;;;;;;;;;;27.80;60.20;;;;;;5095967;28;20444;-62
2022/08/27 00:25:18;;;;;;;;;;;27.90;59.90;;;;;;5093831;28;19966;-61
2022/08/27 00:27:43;;;;;;;;;;;28.00;59.90;;;;;;5094607;28;19912;-61
2022/08/27 00:30:11;;;;;;;;;;;28.00;59.60;;;;;;5109455;28;19968;-61
2022/08/27 00:32:37;;;;;;;;;;;27.90;60.00;;;;;;5071566;28;19919;-61
2022/08/27 00:35:03;;;;;;;;;;;27.80;60.30;;;;;;5095668;28;19911;-61
2022/08/27 00:37:28;;;;;;;;;;;27.70;60.50;;;;;;5114579;28;19908;-61
2022/08/27 00:39:54;;;;;;;;;;;27.80;60.30;;;;;;5110209;28;20206;-61
2022/08/27 00:42:20;;;;;;;;;;;27.80;60.20;;;;;;5114306;28;19950;-61
2022/08/27 00:44:46;;;;;;;;;;;27.80;60.00;;;;;;5092747;28;20306;-61
2022/08/27 00:47:12;;;;;;;;;;;27.80;60.20;;;;;;5104290;28;19912;-61
2022/08/27 00:49:51;;;;;;;;;;;27.80;60.20;;;;;;5114185;28;19916;-61
2022/08/27 00:52:17;;;;;;;;;;;27.80;60.40;;;;;;5112585;28;19919;-61
2022/08/27 00:54:42;;;;;;;;;;;27.80;60.20;;;;;;5112079;28;20276;-61
2022/08/27 00:57:08;;;;;;;;;;;27.90;60.10;;;;;;5113801;28;19957;-61
2022/08/27 00:59:33;;;;;;;;;;;27.90;60.00;;;;;;5094759;28;20410;-61
2022/08/27 01:04:46;;;;;;;;;;;27.80;59.90;;;;;;5120886;28;19914;-61
2022/08/27 01:07:12;;;;;;;;;;;27.90;59.90;;;;;;5094520;28;19934;-61
2022/08/27 01:09:37;;;;;;;;;;;27.80;60.00;;;;;;5111012;28;19930;-61
2022/08/27 01:12:03;;;;;;;;;;;27.80;60.00;;;;;;5114345;28;19916;-61
2022/08/27 01:14:28;;;;;;;;;;;27.70;60.10;;;;;;5102333;28;19946;-61
2022/08/27 01:16:54;;;;;;;;;;;27.60;60.40;;;;;;5070448;28;19912;-61
2022/08/27 01:19:26;;;;;;;;;;;27.50;60.90;;;;;;5080117;28;19916;-61
2022/08/27 01:22:04;;;;;;;;;;;27.40;60.80;;;;;;5088654;28;19916;-61
2022/08/27 01:24:32;;;;;;;;;;;27.40;60.80;;;;;;5072499;28;20280;-61
2022/08/27 01:26:58;;;;;;;;;;;27.50;60.90;;;;;;5067806;28;19959;-61
2022/08/27 01:29:23;;;;;;;;;;;27.40;60.90;;;;;;5071286;28;20288;-61
2022/08/27 01:31:49;;;;;;;;;;;27.40;60.80;;;;;;5065780;28;19919;-61
2022/08/27 01:34:14;;;;;;;;;;;27.30;61.10;;;;;;5074486;28;19920;-61
2022/08/27 01:36:40;;;;;;;;;;;27.30;61.10;;;;;;5067697;28;19920;-61
2022/08/27 01:39:05;;;;;;;;;;;27.30;61.00;;;;;;5090284;28;19912;-61
2022/08/27 01:41:31;;;;;;;;;;;27.30;60.90;;;;;;5093357;28;19995;-61
2022/08/27 01:43:56;;;;;;;;;;;27.30;60.80;;;;;;5074058;28;20030;-62
2022/08/27 01:46:22;;;;;;;;;;;27.30;61.20;;;;;;5092408;28;19923;-61
2022/08/27 01:48:48;;;;;;;;;;;27.20;61.30;;;;;;5058563;28;19952;-61
2022/08/27 01:51:13;;;;;;;;;;;27.20;61.10;;;;;;5091423;28;19989;-61
2022/08/27 01:53:39;;;;;;;;;;;27.20;61.20;;;;;;5080722;28;20318;-61
2022/08/27 01:56:04;;;;;;;;;;;27.30;61.00;;;;;;5074134;28;19916;-61
2022/08/27 01:58:30;;;;;;;;;;;27.20;61.30;;;;;;5092964;28;19912;-61
2022/08/27 02:00:57;;;;;;;;;;;27.20;61.20;;;;;;5089635;28;20280;-61
2022/08/27 02:03:22;;;;;;;;;;;27.30;61.10;;;;;;5074118;28;19922;-61
2022/08/27 02:05:48;;;;;;;;;;;27.20;60.90;;;;;;5091804;28;20002;-61
2022/08/27 02:08:14;;;;;;;;;;;27.30;60.80;;;;;;5067111;28;19924;-61
2022/08/27 02:10:40;;;;;;;;;;;27.30;60.80;;;;;;5071084;28;19919;-61
2022/08/27 02:13:05;;;;;;;;;;;27.30;60.70;;;;;;5092596;28;19911;-61
2022/08/27 02:15:31;;;;;;;;;;;27.30;60.70;;;;;;5098466;28;19926;-61
2022/08/27 02:17:57;;;;;;;;;;;27.30;60.70;;;;;;5092941;28;19940;-61
2022/08/27 02:20:22;;;;;;;;;;;27.30;60.70;;;;;;5101496;28;20352;-61
2022/08/27 02:22:48;;;;;;;;;;;27.40;60.80;;;;;;5111285;28;19911;-61
2022/08/27 02:25:14;;;;;;;;;;;27.40;60.70;;;;;;5105420;28;19916;-61
2022/08/27 02:27:40;;;;;;;;;;;27.40;60.50;;;;;;5096067;28;20012;-61
2022/08/27 02:30:06;;;;;;;;;;;27.40;60.50;;;;;;5102176;28;19922;-61
2022/08/27 02:32:31;;;;;;;;;;;27.40;60.60;;;;;;5111870;28;19919;-62
2022/08/27 02:34:57;;;;;;;;;;;27.50;60.20;;;;;;5092014;28;19926;-61
2022/08/27 02:37:22;;;;;;;;;;;27.50;60.30;;;;;;5093612;28;19927;-61
2022/08/27 02:39:48;;;;;;;;;;;27.50;60.30;;;;;;5081098;28;19908;-61
2022/08/27 02:42:14;;;;;;;;;;;27.50;60.10;;;;;;5104337;28;19912;-61
2022/08/27 02:44:39;;;;;;;;;;;27.50;60.10;;;;;;5111009;28;19920;-61
2022/08/27 02:47:04;;;;;;;;;;;27.50;60.20;;;;;;5100720;28;19953;-61
2022/08/27 02:49:30;;;;;;;;;;;27.40;60.10;;;;;;5110450;28;19919;-61
2022/08/27 02:51:56;;;;;;;;;;;27.40;60.30;;;;;;5095909;28;19923;-61
2022/08/27 02:54:22;;;;;;;;;;;27.30;60.40;;;;;;5092806;28;19918;-61
2022/08/27 02:56:48;;;;;;;;;;;27.30;60.60;;;;;;5112018;28;19911;-61
2022/08/27 02:59:14;;;;;;;;;;;27.40;60.40;;;;;;5087363;28;20288;-61
2022/08/27 03:01:39;;;;;;;;;;;27.30;60.20;;;;;;5109466;28;19957;-61
2022/08/27 03:04:05;;;;;;;;;;;27.40;60.20;;;;;;5083749;28;20356;-61
2022/08/27 03:06:30;;;;;;;;;;;27.40;60.00;;;;;;5111538;28;20251;-61
2022/08/27 03:08:56;;;;;;;;;;;27.50;59.90;;;;;;5107487;28;20306;-61
2022/08/27 03:11:22;;;;;;;;;;;27.50;59.80;;;;;;5087181;28;20268;-62
2022/08/27 03:13:47;;;;;;;;;;;27.50;59.60;;;;;;5084866;28;20015;-61
2022/08/27 03:16:13;;;;;;;;;;;27.50;59.80;;;;;;5050268;28;20007;-61
2022/08/27 03:18:38;;;;;;;;;;;27.40;59.80;;;;;;5086553;28;19935;-61
2022/08/27 03:21:04;;;;;;;;;;;27.30;60.00;;;;;;5070795;28;20294;-61
2022/08/27 03:23:31;;;;;;;;;;;27.30;60.20;;;;;;5091334;28;19912;-61
2022/08/27 03:25:57;;;;;;;;;;;27.20;60.20;;;;;;5073118;28;20358;-61
2022/08/27 03:28:24;;;;;;;;;;;27.20;60.40;;;;;;5091829;28;19917;-61
2022/08/27 03:30:51;;;;;;;;;;;27.10;60.60;;;;;;5073758;28;19967;-61
2022/08/27 03:33:18;;;;;;;;;;;27.00;60.50;;;;;;5088647;28;19912;-61
2022/08/27 03:35:44;;;;;;;;;;;27.00;60.50;;;;;;5071742;28;19965;-61
2022/08/27 03:38:09;;;;;;;;;;;27.00;60.70;;;;;;5098242;28;20317;-61
2022/08/27 03:40:35;;;;;;;;;;;27.00;60.90;;;;;;5078503;28;19935;-61
2022/08/27 03:43:00;;;;;;;;;;;27.00;61.00;;;;;;5094919;28;19920;-61
2022/08/27 03:45:26;;;;;;;;;;;26.90;60.90;;;;;;5097933;28;19950;-61
2022/08/27 03:47:52;;;;;;;;;;;26.80;60.80;;;;;;5095599;28;20009;-61
2022/08/27 03:50:17;;;;;;;;;;;26.80;61.10;;;;;;5091340;28;19931;-61
2022/08/27 03:52:43;;;;;;;;;;;26.80;61.20;;;;;;5096387;28;20327;-61
2022/08/27 03:55:08;;;;;;;;;;;26.80;61.30;;;;;;5078337;28;19908;-61
2022/08/27 03:57:34;;;;;;;;;;;26.70;61.20;;;;;;5097277;28;19966;-61
2022/08/27 04:00:00;;;;;;;;;;;26.70;61.10;;;;;;5095830;28;19942;-61
2022/08/27 04:02:25;;;;;;;;;;;26.80;60.90;;;;;;5097351;28;19918;-61
2022/08/27 04:04:51;;;;;;;;;;;26.90;60.70;;;;;;5074234;28;19939;-61
2022/08/27 04:07:16;;;;;;;;;;;26.90;60.60;;;;;;5073193;28;19963;-61
2022/08/27 04:09:42;;;;;;;;;;;26.90;60.60;;;;;;5097834;28;19999;-61
2022/08/27 04:12:07;;;;;;;;;;;26.80;60.80;;;;;;5095588;28;20012;-61
2022/08/27 04:14:33;;;;;;;;;;;26.80;60.80;;;;;;5096614;28;19927;-61
2022/08/27 04:16:59;;;;;;;;;;;26.80;60.90;;;;;;5095597;28;19915;-61
2022/08/27 04:19:26;;;;;;;;;;;26.70;61.10;;;;;;5072778;28;19923;-61
2022/08/27 04:21:51;;;;;;;;;;;26.60;61.20;;;;;;5068443;28;19965;-61
2022/08/27 04:24:19;;;;;;;;;;;26.70;61.10;;;;;;5092192;28;20479;-61
2022/08/27 04:26:46;;;;;;;;;;;26.70;60.90;;;;;;5076138;28;19922;-61
2022/08/27 04:29:11;;;;;;;;;;;26.70;60.90;;;;;;5094710;28;19986;-61
2022/08/27 04:31:37;;;;;;;;;;;26.70;61.00;;;;;;5074711;28;19955;-61
2022/08/27 04:34:05;;;;;;;;;;;26.60;61.00;;;;;;5094006;28;19916;-61
2022/08/27 04:36:30;;;;;;;;;;;26.70;61.00;;;;;;5078892;28;19912;-61
2022/08/27 04:38:56;;;;;;;;;;;26.70;60.80;;;;;;5090614;28;20011;-61
2022/08/27 04:41:23;;;;;;;;;;;26.80;60.70;;;;;;5077470;28;19915;-61
2022/08/27 04:43:56;;;;;;;;;;;26.80;60.70;;;;;;5078361;28;19916;-61
2022/08/27 04:46:22;;;;;;;;;;;26.70;60.60;;;;;;5077471;28;19916;-61
2022/08/27 04:48:47;;;;;;;;;;;26.80;60.60;;;;;;5093780;28;19923;-60
2022/08/27 04:51:13;;;;;;;;;;;26.70;60.50;;;;;;5073452;28;19928;-61
2022/08/27 04:53:39;;;;;;;;;;;26.70;60.60;;;;;;5093122;28;19912;-61
2022/08/27 04:56:04;;;;;;;;;;;26.60;60.80;;;;;;5094232;28;19965;-61
2022/08/27 04:58:30;;;;;;;;;;;26.60;60.90;;;;;;5091554;28;19964;-61
2022/08/27 05:00:57;;;;;;;;;;;26.60;60.80;;;;;;5094092;28;19933;-61
2022/08/27 05:03:23;;;;;;;;;;;26.60;60.90;;;;;;5057764;28;19927;-61
2022/08/27 05:05:49;;;;;;;;;;;26.50;61.00;;;;;;5073783;28;20285;-61
2022/08/27 05:08:14;;;;;;;;;;;26.40;61.20;;;;;;5093140;28;20383;-61
2022/08/27 05:10:39;;;;;;;;;;;26.40;61.40;;;;;;5075422;28;20398;-61
2022/08/27 05:13:05;;;;;;;;;;;26.40;61.40;;;;;;5085715;28;19920;-61
2022/08/27 05:15:30;;;;;;;;;;;26.50;61.10;;;;;;5092347;28;20334;-61
2022/08/27 05:17:59;;;;;;;;;;;26.60;60.70;;;;;;5074362;28;19951;-61
2022/08/27 05:20:25;;;;;;;;;;;26.70;60.50;;;;;;5075164;28;20372;-61
2022/08/27 05:22:51;;;;;;;;;;;26.70;60.30;;;;;;5092960;28;19916;-61
2022/08/27 05:25:16;;;;;;;;;;;26.70;60.30;;;;;;5091014;28;19916;-61
2022/08/27 05:27:42;;;;;;;;;;;26.60;60.20;;;;;;5057857;28;19921;-61
2022/08/27 05:30:07;;;;;;;;;;;26.50;60.60;;;;;;5086348;28;19924;-61
2022/08/27 05:32:33;;;;;;;;;;;26.50;60.90;;;;;;5073468;28;19949;-61
2022/08/27 05:34:58;;;;;;;;;;;26.40;61.00;;;;;;5092073;28;20003;-61
2022/08/27 05:37:24;;;;;;;;;;;26.40;61.20;;;;;;5075041;28;19915;-61
2022/08/27 05:39:49;;;;;;;;;;;26.30;61.30;;;;;;5086181;28;19964;-61
2022/08/27 05:42:14;;;;;;;;;;;26.30;61.30;;;;;;5093285;28;20407;-61
2022/08/27 05:44:40;;;;;;;;;;;26.40;61.10;;;;;;5092527;28;20288;-61
2022/08/27 05:47:05;;;;;;;;;;;26.50;60.70;;;;;;5088195;28;20294;-61
2022/08/27 05:49:31;;;;;;;;;;;26.40;60.70;;;;;;5073285;28;20006;-61
2022/08/27 05:51:56;;;;;;;;;;;26.50;60.60;;;;;;5072590;28;19975;-61
2022/08/27 05:54:22;;;;;;;;;;;26.50;60.60;;;;;;5090710;28;19947;-61
2022/08/27 05:56:50;;;;;;;;;;;26.40;60.90;;;;;;5084482;28;20339;-61
2022/08/27 06:02:00;;;;;;;;;;;26.50;60.50;;;;;;5076114;28;19919;-61
2022/08/27 06:04:26;;;;;;;;;;;26.60;60.20;;;;;;5084975;28;20373;-61
2022/08/27 06:06:51;;;;;;;;;;;26.60;60.20;;;;;;5090445;28;19919;-61
2022/08/27 06:09:18;;;;;;;;;;;26.50;60.30;;;;;;5091669;28;20009;-61
2022/08/27 06:11:45;;;;;;;;;;;26.40;60.70;;;;;;5073820;28;19938;-61
2022/08/27 06:14:11;;;;;;;;;;;26.30;61.00;;;;;;5099901;28;19995;-61
2022/08/27 06:16:36;;;;;;;;;;;26.30;61.30;;;;;;5110313;28;19911;-61
2022/08/27 06:19:02;;;;;;;;;;;26.40;61.20;;;;;;5089771;28;19938;-61
2022/08/27 06:21:27;;;;;;;;;;;26.40;60.70;;;;;;5086814;28;19955;-61
2022/08/27 06:23:53;;;;;;;;;;;26.50;60.50;;;;;;5094410;28;19912;-61
2022/08/27 06:26:19;;;;;;;;;;;26.50;60.40;;;;;;5088584;28;19968;-61
2022/08/27 06:28:44;;;;;;;;;;;26.50;60.50;;;;;;5110329;28;19919;-61
2022/08/27 06:31:14;;;;;;;;;;;26.50;60.60;;;;;;5107101;28;19915;-61
2022/08/27 06:33:39;;;;;;;;;;;26.50;60.50;;;;;;5073235;28;19919;-60
2022/08/27 06:36:06;;;;;;;;;;;26.50;60.30;;;;;;5102427;28;20256;-61
2022/08/27 06:38:31;;;;;;;;;;;26.50;60.40;;;;;;5092348;28;19911;-61
2022/08/27 06:40:57;;;;;;;;;;;26.50;60.10;;;;;;5092496;28;19927;-61
2022/08/27 06:43:23;;;;;;;;;;;26.50;60.10;;;;;;5088614;28;19918;-61
2022/08/27 06:45:48;;;;;;;;;;;26.40;60.60;;;;;;5109556;28;19930;-61
2022/08/27 06:48:14;;;;;;;;;;;26.40;60.40;;;;;;5091065;28;20284;-61
2022/08/27 06:50:39;;;;;;;;;;;26.40;60.40;;;;;;5090106;28;19969;-61
2022/08/27 06:53:05;;;;;;;;;;;26.40;60.30;;;;;;5085762;28;20404;-61
2022/08/27 06:55:30;;;;;;;;;;;26.30;60.20;;;;;;5088085;28;19920;-62
2022/08/27 06:57:56;;;;;;;;;;;26.30;60.30;;;;;;5107903;28;19998;-61
2022/08/27 07:00:21;;;;;;;;;;;26.30;60.30;;;;;;5080345;28;20317;-61
2022/08/27 07:02:48;;;;;;;;;;;26.30;60.00;;;;;;5093316;28;19920;-61
2022/08/27 07:05:13;;;;;;;;;;;26.20;60.00;;;;;;5111014;28;19907;-61
2022/08/27 07:07:39;;;;;;;;;;;26.20;60.20;;;;;;5090277;28;19912;-61
2022/08/27 07:10:04;;;;;;;;;;;26.20;60.20;;;;;;5092536;28;20404;-61
2022/08/27 07:12:30;;;;;;;;;;;26.10;60.20;;;;;;5092226;28;20003;-61
2022/08/27 07:14:55;;;;;;;;;;;26.20;59.90;;;;;;5110007;28;19920;-61
2022/08/27 07:17:21;;;;;;;;;;;26.20;60.00;;;;;;5100475;28;19927;-61
2022/08/27 07:19:46;;;;;;;;;;;26.10;59.90;;;;;;5093043;28;20386;-61
2022/08/27 07:22:12;;;;;;;;;;;26.20;59.90;;;;;;5108153;28;20007;-61
2022/08/27 07:24:38;;;;;;;;;;;26.20;59.90;;;;;;5111083;28;19915;-61
2022/08/27 07:27:03;;;;;;;;;;;26.30;59.60;;;;;;5092979;28;19962;-61
2022/08/27 07:29:28;;;;;;;;;;;26.20;59.60;;;;;;5105904;28;19963;-61
2022/08/27 07:31:54;;;;;;;;;;;26.20;59.80;;;;;;5091371;28;20252;-61
2022/08/27 07:34:19;;;;;;;;;;;26.10;59.80;;;;;;5084458;28;19963;-62
2022/08/27 07:36:45;;;;;;;;;;;26.10;59.80;;;;;;5110340;28;19919;-61
2022/08/27 07:39:12;;;;;;;;;;;26.20;59.90;;;;;;5111040;28;20424;-61
2022/08/27 07:44:26;;;;;;;;;;;26.20;59.60;;;;;;5110337;28;19918;-61
2022/08/27 07:46:53;;;;;;;;;;;26.20;59.60;;;;;;5107629;28;19912;-61
2022/08/27 07:49:19;;;;;;;;;;;26.30;59.40;;;;;;5106010;28;19919;-61
2022/08/27 07:51:44;;;;;;;;;;;26.30;59.20;;;;;;5088777;28;19920;-61
2022/08/27 07:54:10;;;;;;;;;;;26.40;58.90;;;;;;5109915;28;20328;-61
2022/08/27 07:56:35;;;;;;;;;;;26.40;58.90;;;;;;5091490;28;19934;-61
2022/08/27 07:59:00;;;;;;;;;;;26.40;58.70;;;;;;5103120;28;19957;-61
2022/08/27 08:01:27;;;;;;;;;;;26.40;58.60;;;;;;5097670;28;19912;-61
2022/08/27 08:03:52;;;;;;;;;;;26.30;58.80;;;;;;5091378;28;20007;-61
2022/08/27 08:06:18;;;;;;;;;;;26.20;59.00;;;;;;5103739;28;20435;-61
2022/08/27 08:08:44;;;;;;;;;;;26.20;59.30;;;;;;5087308;28;20345;-61
2022/08/27 08:11:10;;;;;;;;;;;26.10;59.30;;;;;;5092465;28;20302;-61
2022/08/27 08:13:35;;;;;;;;;;;26.10;59.40;;;;;;5109657;28;19916;-61
2022/08/27 08:16:01;;;;;;;;;;;26.10;59.60;;;;;;5087651;28;19916;-61
2022/08/27 08:18:27;;;;;;;;;;;26.00;59.80;;;;;;5091645;28;19923;-61
2022/08/27 08:20:58;;;;;;;;;;;26.00;59.80;;;;;;5102934;28;19920;-60
2022/08/27 08:23:23;;;;;;;;;;;25.90;59.70;;;;;;5070217;28;19912;-61
2022/08/27 08:25:49;;;;;;;;;;;26.10;59.80;;;;;;5090584;28;20282;-61
2022/08/27 08:28:14;;;;;;;;;;;26.10;59.80;;;;;;5113969;28;19912;-61
2022/08/27 08:30:41;;;;;;;;;;;26.20;59.50;;;;;;5083958;28;19919;-61
2022/08/27 08:33:06;;;;;;;;;;;26.20;59.50;;;;;;5096756;28;20446;-61
2022/08/27 08:35:32;;;;;;;;;;;26.20;59.40;;;;;;5113571;28;19943;-61
2022/08/27 08:37:57;;;;;;;;;;;26.20;59.50;;;;;;5107646;28;19926;-61
2022/08/27 08:40:34;;;;;;;;;;;26.20;60.10;;;;;;5109625;28;19912;-61
2022/08/27 08:43:00;;;;;;;;;;;26.10;59.50;;;;;;5095115;28;19919;-61
2022/08/27 08:45:30;;;;;;;;;;;26.10;59.60;;;;;;5096647;28;20263;-61
2022/08/27 08:48:05;;;;;;;;;;;26.00;59.80;;;;;;5078045;28;19915;-61
2022/08/27 08:50:37;;;;;;;;;;;25.90;59.70;;;;;;5110630;28;20127;-61
2022/08/27 08:53:18;;;;;;;;;;;25.90;59.70;;;;;;5080720;28;19916;-61
2022/08/27 08:55:46;;;;;;;;;;;25.90;59.70;;;;;;5102539;28;20329;-61
2022/08/27 08:58:18;;;;;;;;;;;25.80;59.70;;;;;;5077066;28;19918;-61
2022/08/27 09:00:44;;;;;;;;;;;25.90;59.70;;;;;;5095602;28;20039;-61
2022/08/27 09:03:11;;;;;;;;;;;26.00;60.30;;;;;;5093997;28;20384;-61
2022/08/27 09:05:36;;;;;;;;;;;25.90;59.60;;;;;;5094950;28;19958;-61
2022/08/27 09:08:06;;;;;;;;;;;25.80;59.60;;;;;;5078397;28;19951;-61
2022/08/27 09:10:47;;;;;;;;;;;25.70;59.60;;;;;;5087977;28;19950;-61
2022/08/27 09:13:33;;;;;;;;;;;25.70;59.60;;;;;;5089293;28;19911;-61
2022/08/27 09:16:00;;;;;;;;;;;25.80;59.70;;;;;;5107760;28;19970;-61
2022/08/27 09:18:26;;;;;;;;;;;25.90;59.10;;;;;;5077737;28;20416;-61
2022/08/27 09:20:53;;;;;;;;;;;26.00;58.80;;;;;;5108398;28;22888;-61
2022/08/27 09:23:19;;;;;;;;;;;26.00;58.70;;;;;;5094359;28;19911;-61
2022/08/27 09:25:44;;;;;;;;;;;26.00;58.70;;;;;;5098903;28;19976;-61
2022/08/27 09:29:14;;;;;;;;;;;26.00;58.50;;;;;;5083335;28;19912;-61
2022/08/27 09:31:02;;;;;;;;;;;26.10;58.60;;;;;;5090501;28;19926;-61
2022/08/27 09:33:27;;;;;;;;;;;26.10;58.40;;;;;;5094018;28;20055;-61
2022/08/27 09:35:53;;;;;;;;;;;26.10;58.40;;;;;;5109980;28;19924;-61
2022/08/27 09:38:39;;;;;;;;;;;26.20;58.30;;;;;;5109873;28;19947;-61
2022/08/27 09:41:05;;;;;;;;;;;26.20;58.30;;;;;;5108553;28;19918;-61
2022/08/27 09:43:30;;;;;;;;;;;26.20;58.20;;;;;;5090203;28;19918;-61
2022/08/27 09:45:58;;;;;;;;;;;26.30;58.00;;;;;;5095238;28;20062;-61
2022/08/27 09:48:27;;;;;;;;;;;26.30;57.90;;;;;;5113801;28;19908;-61
2022/08/27 09:50:56;;;;;;;;;;;26.20;58.00;;;;;;5095011;28;19920;-61
2022/08/27 09:53:24;;;;;;;;;;;26.20;58.30;;;;;;5090851;28;19923;-61
2022/08/27 09:55:53;;;;;;;;;;;26.10;58.50;;;;;;5094140;28;19920;-61
2022/08/27 09:58:20;;;;;;;;;;;26.20;58.30;;;;;;5108326;28;20394;-61
2022/08/27 10:00:46;;;;;;;;;;;26.30;58.10;;;;;;5093244;28;20386;-62
2022/08/27 10:03:11;;;;;;;;;;;26.40;57.80;;;;;;5107767;28;19912;-61
2022/08/27 10:05:38;;;;;;;;;;;26.40;57.50;;;;;;5094342;28;20095;-61
2022/08/27 10:08:07;;;;;;;;;;;26.40;57.50;;;;;;5090541;28;19916;-61
2022/08/27 10:10:41;;;;;;;;;;;26.40;57.70;;;;;;5111139;28;19961;-62
2022/08/27 10:13:36;;;;;;;;;;;26.30;57.60;;;;;;5074873;28;19920;-61
2022/08/27 10:16:14;;;;;;;;;;;26.30;57.50;;;;;;5046224;28;19934;-61
2022/08/27 10:18:54;;;;;;;;;;;26.40;57.40;;;;;;5089348;28;19914;-62
2022/08/27 10:21:22;;;;;;;;;;;26.40;57.30;;;;;;5097842;28;19915;-59
2022/08/27 10:24:00;;;;;;;;;;;26.40;57.40;;;;;;5094550;28;19916;-62
2022/08/27 10:26:27;;;;;;;;;;;26.30;57.60;;;;;;5111995;28;19908;-60
2022/08/27 10:28:55;;;;;;;;;;;26.20;57.50;;;;;;5093112;28;19915;-60
2022/08/27 10:31:21;;;;;;;;;;;26.20;57.60;;;;;;5089420;28;19924;-60
2022/08/27 10:33:49;;;;;;;;;;;26.10;57.80;;;;;;5104892;28;19918;-61
2022/08/27 10:36:24;;;;;;;;;;;26.10;57.90;;;;;;5095711;28;19916;-60
2022/08/27 10:38:52;;;;;;;;;;;26.10;57.80;;;;;;5084002;28;19946;-60
2022/08/27 10:41:20;;;;;;;;;;;26.10;57.70;;;;;;5076855;28;19919;-61
2022/08/27 10:44:09;;;;;;;;;;;26.20;57.60;;;;;;5095784;28;19920;-61
2022/08/27 10:46:40;;;;;;;;;;;26.30;57.40;;;;;;5086512;28;20367;-60
2022/08/27 10:49:09;;;;;;;;;;;26.30;57.10;;;;;;5113827;28;19912;-60
2022/08/27 10:51:44;;;;;;;;;;;26.30;57.10;;;;;;5101203;28;20015;-60
2022/08/27 10:54:19;;;;;;;;;;;26.30;57.10;;;;;;5085371;28;20072;-60
2022/08/27 10:56:51;;;;;;;;;;;26.10;57.40;;;;;;5082525;28;20016;-60
2022/08/27 10:59:26;;;;;;;;;;;26.00;57.70;;;;;;5078164;28;20399;-60
2022/08/27 11:01:54;;;;;;;;;;;25.90;57.90;;;;;;5086127;28;19920;-60
2022/08/27 11:04:21;;;;;;;;;;;25.90;57.90;;;;;;5105436;28;19915;-60
2022/08/27 11:06:52;;;;;;;;;;;25.80;58.00;;;;;;5108976;28;19966;-60
2022/08/27 11:09:37;;;;;;;;;;;25.80;58.10;;;;;;5067735;28;19920;-61
2022/08/27 11:12:05;;;;;;;;;;;25.80;58.10;;;;;;5088404;28;19973;-61
2022/08/27 11:14:33;;;;;;;;;;;25.80;58.00;;;;;;5087566;28;19924;-61
2022/08/27 11:17:03;;;;;;;;;;;25.80;57.90;;;;;;5100030;28;19951;-62
2022/08/27 11:19:30;;;;;;;;;;;25.80;57.90;;;;;;5106113;28;19987;-62
2022/08/27 11:22:01;;;;;;;;;;;25.80;58.00;;;;;;5089282;28;19915;-61
2022/08/27 11:24:32;;;;;;;;;;;25.70;58.10;;;;;;5100466;28;19912;-61
2022/08/27 11:26:59;;;;;;;;;;;25.70;58.10;;;;;;5103440;28;19927;-62
2022/08/27 11:29:36;;;;;;;;;;;25.60;58.30;;;;;;5103788;28;19912;-62
2022/08/27 11:32:01;;;;;;;;;;;25.60;58.10;;;;;;5097399;28;19935;-62
2022/08/27 11:34:38;;;;;;;;;;;25.60;58.10;;;;;;5100257;28;19916;-61
2022/08/27 11:37:09;;;;;;;;;;;25.60;58.00;;;;;;5082064;28;20006;-62
2022/08/27 11:39:35;;;;;;;;;;;25.70;57.90;;;;;;5103620;28;19911;-62
2022/08/27 11:42:12;;;;;;;;;;;25.70;57.70;;;;;;5110143;28;19911;-62
2022/08/27 11:44:42;;;;;;;;;;;25.60;57.70;;;;;;5107290;28;19920;-63
2022/08/27 11:47:23;;;;;;;;;;;25.60;57.90;;;;;;5104094;28;20256;-61
2022/08/27 11:49:52;;;;;;;;;;;25.50;58.10;;;;;;5088437;28;20010;-62
2022/08/27 11:52:21;;;;;;;;;;;25.50;58.20;;;;;;5107564;28;20302;-62
2022/08/27 11:54:51;;;;;;;;;;;25.50;58.20;;;;;;5081150;28;20422;-62
2022/08/27 11:57:26;;;;;;;;;;;25.60;58.10;;;;;;5103552;28;19920;-61
2022/08/27 11:59:52;;;;;;;;;;;25.60;58.00;;;;;;5070880;28;19919;-62
2022/08/27 12:02:17;;;;;;;;;;;25.60;58.10;;;;;;5109157;28;19919;-62
2022/08/27 12:04:43;;;;;;;;;;;25.60;58.00;;;;;;5104558;28;20014;-62
2022/08/27 12:07:20;;;;;;;;;;;25.70;57.90;;;;;;5106330;28;20006;-62
2022/08/27 12:09:54;;;;;;;;;;;25.70;57.60;;;;;;5107084;28;20040;-62
2022/08/27 12:12:43;;;;;;;;;;;25.70;57.40;;;;;;5105490;28;19973;-62
2022/08/27 12:15:09;;;;;;;;;;;25.70;57.40;;;;;;5088938;28;20419;-61
2022/08/27 12:17:46;;;;;;;;;;;25.70;57.10;;;;;;5090075;28;20011;-62
2022/08/27 12:20:23;;;;;;;;;;;25.60;57.30;;;;;;5083295;28;19913;-63
2022/08/27 12:25:33;;;;;;;;;;;25.80;56.90;;;;;;5090543;28;19923;-62
2022/08/27 12:28:02;;;;;;;;;;;25.90;56.60;;;;;;5087045;28;19916;-62
2022/08/27 12:30:31;;;;;;;;;;;25.90;56.30;;;;;;5082821;28;20341;-62
2022/08/27 12:32:57;;;;;;;;;;;26.00;56.30;;;;;;5085993;28;19916;-62
2022/08/27 12:35:28;;;;;;;;;;;26.10;56.10;;;;;;5082587;28;19973;-61
2022/08/27 12:37:55;;;;;;;;;;;26.10;55.80;;;;;;5068427;28;19920;-61
2022/08/27 12:40:22;;;;;;;;;;;26.20;55.70;;;;;;5086422;28;19934;-62
2022/08/27 12:42:47;;;;;;;;;;;26.20;55.50;;;;;;5075738;28;19923;-62
2022/08/27 12:45:20;;;;;;;;;;;26.20;55.40;;;;;;5086795;28;19942;-62
2022/08/27 12:47:46;;;;;;;;;;;26.20;55.50;;;;;;5085160;28;19997;-62
2022/08/27 12:50:11;;;;;;;;;;;26.20;55.30;;;;;;5086716;28;19916;-62
2022/08/27 12:52:57;;;;;;;;;;;26.20;55.30;;;;;;5084535;28;19928;-62
2022/08/27 12:55:35;;;;;;;;;;;26.20;55.30;;;;;;5083996;28;19916;-62
2022/08/27 12:58:04;;;;;;;;;;;26.20;55.20;;;;;;5065966;28;19920;-61
2022/08/27 13:00:34;;;;;;;;;;;26.20;55.00;;;;;;5063601;28;19920;-62
2022/08/27 13:03:08;;;;;;;;;;;26.20;54.90;;;;;;5069366;28;19923;-61
2022/08/27 13:05:37;;;;;;;;;;;26.10;54.90;;;;;;5085620;28;20493;-62
2022/08/27 13:08:03;;;;;;;;;;;26.10;54.90;;;;;;5069494;28;19949;-62
2022/08/27 13:10:29;;;;;;;;;;;26.00;54.90;;;;;;5082943;28;19920;-61
2022/08/27 13:13:15;;;;;;;;;;;26.00;54.90;;;;;;5079762;28;19919;-62
2022/08/27 13:16:00;;;;;;;;;;;26.00;55.00;;;;;;5103382;28;20431;-61
2022/08/27 13:18:25;;;;;;;;;;;26.20;54.60;;;;;;5105164;28;20333;-62
2022/08/27 13:20:59;;;;;;;;;;;26.20;54.40;;;;;;5103392;28;19916;-62
2022/08/27 13:23:26;;;;;;;;;;;26.20;54.30;;;;;;5105551;28;20022;-62
2022/08/27 13:25:58;;;;;;;;;;;26.30;54.50;;;;;;5103870;28;19919;-62
2022/08/27 13:28:24;;;;;;;;;;;26.50;54.00;;;;;;5103425;28;19995;-62
2022/08/27 13:30:49;;;;;;;;;;;26.50;54.30;;;;;;5102567;28;19923;-62
2022/08/27 13:33:20;;;;;;;;;;;26.50;54.00;;;;;;5105947;28;19965;-61
2022/08/27 13:35:46;;;;;;;;;;;26.50;53.90;;;;;;5086106;28;19962;-62
2022/08/27 13:38:12;;;;;;;;;;;26.50;53.90;;;;;;5104176;28;19943;-62
2022/08/27 13:40:49;;;;;;;;;;;26.60;53.80;;;;;;5103212;28;19945;-62
2022/08/27 13:43:15;;;;;;;;;;;26.60;53.70;;;;;;5103903;28;20019;-62
2022/08/27 13:45:40;;;;;;;;;;;26.60;53.60;;;;;;5104831;28;19924;-62
2022/08/27 13:48:07;;;;;;;;;;;26.60;53.60;;;;;;5084919;28;19912;-62
2022/08/27 13:50:33;;;;;;;;;;;26.70;53.40;;;;;;5086153;28;20529;-62
2022/08/27 13:55:52;;;;;;;;;;;26.80;53.20;;;;;;5091686;28;20023;-63
2022/08/27 13:58:20;;;;;;;;;;;26.80;53.00;;;;;;5106699;28;20022;-62
2022/08/27 14:00:46;;;;;;;;;;;26.80;53.20;;;;;;5106224;28;19916;-62
2022/08/27 14:03:31;;;;;;;;;;;26.70;52.60;;;;;;5069870;28;19919;-62
2022/08/27 14:05:57;;;;;;;;;;;26.70;52.80;;;;;;5113447;28;20332;-62
2022/08/27 14:08:23;;;;;;;;;;;26.60;53.10;;;;;;5108066;28;19951;-63
2022/08/27 14:10:49;;;;;;;;;;;26.70;53.40;;;;;;5089045;28;19920;-63
2022/08/27 14:13:15;;;;;;;;;;;26.80;52.60;;;;;;5087772;28;19957;-63
2022/08/27 14:15:43;;;;;;;;;;;26.80;52.60;;;;;;5084638;28;19917;-62
2022/08/27 14:18:26;;;;;;;;;;;26.90;52.20;;;;;;5064649;28;19973;-62
2022/08/27 14:20:51;;;;;;;;;;;26.90;51.80;;;;;;5083655;28;19917;-62
2022/08/27 14:23:17;;;;;;;;;;;26.90;51.90;;;;;;5086428;28;19961;-62
2022/08/27 14:25:42;;;;;;;;;;;26.80;51.20;;;;;;5087664;28;19920;-63
2022/08/27 14:28:08;;;;;;;;;;;26.80;51.40;;;;;;5073632;28;19918;-62
2022/08/27 14:30:33;;;;;;;;;;;26.80;51.50;;;;;;5088608;28;19951;-62
2022/08/27 14:32:59;;;;;;;;;;;26.70;51.40;;;;;;5085763;28;19916;-63